sensor_id;sensor_type;location;lat;lon;timestamp;temperature;humidity
6407;DHT22;3236;51.022;6.818;2023-03-21T00:02:09;9.50;99.90
6407;DHT22;3236;51.022;6.818;2023-03-21T00:04:39;9.80;99.90
6407;DHT22;3236;51.022;6.818;2023-03-21T00:07:06;9.70;99.90
6407;DHT22;3236;51.022;6.818;2023-03-21T00:12:15;9.70;99.90
6407;DHT22;3236;51.022;6.818;2023-03-21T00:14:46;9.60;99.90
6407;DHT22;3236;51.022;6.818;2023-03-21T00:17:13;9.70;99.90
6407;DHT22;3236;51.022;6.818;2023-03-21T00:19:41;9.90;99.90
6407;DHT22;3236;51.022;6.818;2023-03-21T00:22:11;9.40;99.90
6407;DHT22;3236;51.022;6.818;2023-03-21T00:24:42;9.60;99.90
6407;DHT22;3236;51.022;6.818;2023-03-21T00:29:38;9.60;99.90
6407;DHT22;3236;51.022;6.818;2023-03-21T00:32:06;9.40;99.90
6407;DHT22;3236;51.022;6.818;2023-03-21T00:34:33;9.80;99.90
6407;DHT22;3236;51.022;6.818;2023-03-21T00:37:02;9.40;99.90
6407;DHT22;3236;51.022;6.818;2023-03-21T00:39:30;9.40;99.90
6407;DHT22;3236;51.022;6.818;2023-03-21T00:41:58;9.40;99.90
6407;DHT22;3236;51.022;6.818;2023-03-21T00:44:25;9.50;99.90
6407;DHT22;3236;51.022;6.818;2023-03-21T00:46:52;9.50;99.90
6407;DHT22;3236;51.022;6.818;2023-03-21T00:49:20;9.60;99.90
6407;DHT22;3236;51.022;6.818;2023-03-21T00:51:47;9.60;99.90
6407;DHT22;3236;51.022;6.818;2023-03-21T00:54:16;9.60;99.90
6407;DHT22;3236;51.022;6.818;2023-03-21T00:56:43;9.60;99.90
6407;DHT22;3236;51.022;6.818;2023-03-21T00:59:10;9.60;99.90
6407;DHT22;3236;51.022;6.818;2023-03-21T01:01:43;9.60;99.90
6407;DHT22;3236;51.022;6.818;2023-03-21T01:04:12;9.60;99.90
6407;DHT22;3236;51.022;6.818;2023-03-21T01:06:42;9.60;99.90
6407;DHT22;3236;51.022;6.818;2023-03-21T01:09:12;9.60;99.90
6407;DHT22;3236;51.022;6.818;2023-03-21T01:11:39;9.60;99.90
6407;DHT22;3236;51.022;6.818;2023-03-21T01:14:12;9.70;99.90
6407;DHT22;3236;51.022;6.818;2023-03-21T01:16:40;9.60;99.90
6407;DHT22;3236;51.022;6.818;2023-03-21T01:19:10;9.80;99.90
6407;DHT22;3236;51.022;6.818;2023-03-21T01:21:38;9.60;99.90
6407;DHT22;3236;51.022;6.818;2023-03-21T01:24:08;9.70;99.90
6407;DHT22;3236;51.022;6.818;2023-03-21T01:26:38;9.70;99.90
6407;DHT22;3236;51.022;6.818;2023-03-21T01:29:05;10.10;99.90
6407;DHT22;3236;51.022;6.818;2023-03-21T01:31:32;9.50;99.90
6407;DHT22;3236;51.022;6.818;2023-03-21T01:33:59;9.70;99.90
6407;DHT22;3236;51.022;6.818;2023-03-21T01:36:26;9.90;99.90
6407;DHT22;3236;51.022;6.818;2023-03-21T01:38:53;9.70;99.90
6407;DHT22;3236;51.022;6.818;2023-03-21T01:41:26;9.80;99.90
6407;DHT22;3236;51.022;6.818;2023-03-21T01:43:55;9.60;99.90
6407;DHT22;3236;51.022;6.818;2023-03-21T01:46:36;9.60;99.90
6407;DHT22;3236;51.022;6.818;2023-03-21T01:49:08;11.10;99.90
6407;DHT22;3236;51.022;6.818;2023-03-21T01:51:39;10.80;99.90
6407;DHT22;3236;51.022;6.818;2023-03-21T01:54:14;9.60;99.90
6407;DHT22;3236;51.022;6.818;2023-03-21T01:56:45;9.90;99.90
6407;DHT22;3236;51.022;6.818;2023-03-21T01:59:16;9.60;99.90
6407;DHT22;3236;51.022;6.818;2023-03-21T02:01:47;9.80;99.90
6407;DHT22;3236;51.022;6.818;2023-03-21T02:04:15;9.70;99.90
6407;DHT22;3236;51.022;6.818;2023-03-21T02:06:54;9.60;99.90
6407;DHT22;3236;51.022;6.818;2023-03-21T02:09:25;9.60;99.90
6407;DHT22;3236;51.022;6.818;2023-03-21T02:11:55;9.90;99.90
6407;DHT22;3236;51.022;6.818;2023-03-21T02:14:22;9.50;99.90
6407;DHT22;3236;51.022;6.818;2023-03-21T02:16:53;9.50;99.90
6407;DHT22;3236;51.022;6.818;2023-03-21T02:26:01;9.40;99.90
6407;DHT22;3236;51.022;6.818;2023-03-21T02:28:39;9.40;99.90
6407;DHT22;3236;51.022;6.818;2023-03-21T02:31:33;9.40;99.90
6407;DHT22;3236;51.022;6.818;2023-03-21T02:34:23;9.30;99.90
6407;DHT22;3236;51.022;6.818;2023-03-21T02:37:03;9.30;99.90
6407;DHT22;3236;51.022;6.818;2023-03-21T02:39:43;9.10;99.90
6407;DHT22;3236;51.022;6.818;2023-03-21T02:42:18;9.30;99.90
6407;DHT22;3236;51.022;6.818;2023-03-21T02:44:50;9.30;99.90
6407;DHT22;3236;51.022;6.818;2023-03-21T02:47:24;9.60;99.90
6407;DHT22;3236;51.022;6.818;2023-03-21T02:49:56;10.50;99.90
6407;DHT22;3236;51.022;6.818;2023-03-21T02:52:27;9.60;99.90
6407;DHT22;3236;51.022;6.818;2023-03-21T02:55:05;9.50;99.90
6407;DHT22;3236;51.022;6.818;2023-03-21T02:57:39;9.40;99.90
6407;DHT22;3236;51.022;6.818;2023-03-21T03:00:10;9.20;99.90
6407;DHT22;3236;51.022;6.818;2023-03-21T03:02:39;9.40;99.90
6407;DHT22;3236;51.022;6.818;2023-03-21T03:05:14;9.40;99.90
6407;DHT22;3236;51.022;6.818;2023-03-21T03:07:55;9.30;99.90
6407;DHT22;3236;51.022;6.818;2023-03-21T03:10:38;9.60;99.90
6407;DHT22;3236;51.022;6.818;2023-03-21T03:13:14;9.40;99.90
6407;DHT22;3236;51.022;6.818;2023-03-21T03:15:50;9.40;99.90
6407;DHT22;3236;51.022;6.818;2023-03-21T03:18:34;9.40;99.90
6407;DHT22;3236;51.022;6.818;2023-03-21T03:21:08;9.40;99.90
6407;DHT22;3236;51.022;6.818;2023-03-21T03:23:42;9.00;99.90
6407;DHT22;3236;51.022;6.818;2023-03-21T03:26:17;9.10;99.90
6407;DHT22;3236;51.022;6.818;2023-03-21T03:28:48;9.20;99.90
6407;DHT22;3236;51.022;6.818;2023-03-21T03:31:20;8.90;99.90
6407;DHT22;3236;51.022;6.818;2023-03-21T03:33:54;8.90;99.90
6407;DHT22;3236;51.022;6.818;2023-03-21T03:36:25;8.70;99.90
6407;DHT22;3236;51.022;6.818;2023-03-21T03:38:56;9.00;99.90
6407;DHT22;3236;51.022;6.818;2023-03-21T03:41:53;8.90;99.90
6407;DHT22;3236;51.022;6.818;2023-03-21T03:44:23;9.10;99.90
6407;DHT22;3236;51.022;6.818;2023-03-21T03:46:53;8.90;99.90
6407;DHT22;3236;51.022;6.818;2023-03-21T03:49:24;9.20;99.90
6407;DHT22;3236;51.022;6.818;2023-03-21T03:51:54;9.10;99.90
6407;DHT22;3236;51.022;6.818;2023-03-21T03:54:25;9.00;99.90
6407;DHT22;3236;51.022;6.818;2023-03-21T03:56:53;8.80;99.90
6407;DHT22;3236;51.022;6.818;2023-03-21T03:59:21;7.80;99.90
6407;DHT22;3236;51.022;6.818;2023-03-21T04:04:15;9.30;99.90
6407;DHT22;3236;51.022;6.818;2023-03-21T04:09:16;9.00;99.90
6407;DHT22;3236;51.022;6.818;2023-03-21T04:14:12;9.40;99.90
6407;DHT22;3236;51.022;6.818;2023-03-21T04:19:09;9.20;99.90
6407;DHT22;3236;51.022;6.818;2023-03-21T04:21:36;9.20;99.90
6407;DHT22;3236;51.022;6.818;2023-03-21T04:29:02;9.60;99.90
6407;DHT22;3236;51.022;6.818;2023-03-21T04:33:59;9.30;99.90
6407;DHT22;3236;51.022;6.818;2023-03-21T04:36:26;9.60;99.90
6407;DHT22;3236;51.022;6.818;2023-03-21T04:46:22;9.30;99.90
6407;DHT22;3236;51.022;6.818;2023-03-21T04:56:14;9.40;99.90
6407;DHT22;3236;51.022;6.818;2023-03-21T04:58:44;9.50;99.90
6407;DHT22;3236;51.022;6.818;2023-03-21T05:01:13;9.10;99.90
6407;DHT22;3236;51.022;6.818;2023-03-21T05:03:46;9.30;99.90
6407;DHT22;3236;51.022;6.818;2023-03-21T05:06:13;9.60;99.90
6407;DHT22;3236;51.022;6.818;2023-03-21T05:08:40;9.30;99.90
6407;DHT22;3236;51.022;6.818;2023-03-21T05:11:07;9.40;99.90
6407;DHT22;3236;51.022;6.818;2023-03-21T05:16:01;9.60;99.90
6407;DHT22;3236;51.022;6.818;2023-03-21T05:21:05;9.70;99.90
6407;DHT22;3236;51.022;6.818;2023-03-21T05:23:36;9.20;99.90
6407;DHT22;3236;51.022;6.818;2023-03-21T05:26:08;9.70;99.90
6407;DHT22;3236;51.022;6.818;2023-03-21T05:28:39;9.40;99.90
6407;DHT22;3236;51.022;6.818;2023-03-21T05:31:07;9.40;99.90
6407;DHT22;3236;51.022;6.818;2023-03-21T05:38:30;9.30;99.90
6407;DHT22;3236;51.022;6.818;2023-03-21T05:40:57;9.30;99.90
6407;DHT22;3236;51.022;6.818;2023-03-21T05:45:52;9.10;99.90
6407;DHT22;3236;51.022;6.818;2023-03-21T05:48:19;9.60;99.90
6407;DHT22;3236;51.022;6.818;2023-03-21T05:50:46;9.00;99.90
6407;DHT22;3236;51.022;6.818;2023-03-21T05:55:43;9.20;99.90
6407;DHT22;3236;51.022;6.818;2023-03-21T05:58:10;9.00;99.90
6407;DHT22;3236;51.022;6.818;2023-03-21T06:00:37;9.20;99.90
6407;DHT22;3236;51.022;6.818;2023-03-21T06:03:04;9.40;99.90
6407;DHT22;3236;51.022;6.818;2023-03-21T06:05:31;8.90;99.90
6407;DHT22;3236;51.022;6.818;2023-03-21T06:07:58;8.90;99.90
6407;DHT22;3236;51.022;6.818;2023-03-21T06:10:25;9.50;99.90
6407;DHT22;3236;51.022;6.818;2023-03-21T06:12:54;8.90;99.90
6407;DHT22;3236;51.022;6.818;2023-03-21T06:15:21;9.20;99.90
6407;DHT22;3236;51.022;6.818;2023-03-21T06:22:43;9.50;99.90
6407;DHT22;3236;51.022;6.818;2023-03-21T06:25:13;9.30;99.90
6407;DHT22;3236;51.022;6.818;2023-03-21T06:27:40;9.30;99.90
6407;DHT22;3236;51.022;6.818;2023-03-21T06:30:11;9.50;99.90
6407;DHT22;3236;51.022;6.818;2023-03-21T06:42:33;9.70;99.90
6407;DHT22;3236;51.022;6.818;2023-03-21T06:45:04;9.70;99.90
6407;DHT22;3236;51.022;6.818;2023-03-21T06:47:32;9.70;99.90
6407;DHT22;3236;51.022;6.818;2023-03-21T06:52:30;9.50;99.90
6407;DHT22;3236;51.022;6.818;2023-03-21T07:04:48;9.70;99.90
6407;DHT22;3236;51.022;6.818;2023-03-21T07:09:42;9.80;99.90
6407;DHT22;3236;51.022;6.818;2023-03-21T07:12:10;9.40;99.90
6407;DHT22;3236;51.022;6.818;2023-03-21T07:19:31;9.90;99.90
6407;DHT22;3236;51.022;6.818;2023-03-21T07:21:59;9.60;99.90
6407;DHT22;3236;51.022;6.818;2023-03-21T07:26:56;9.30;99.90
6407;DHT22;3236;51.022;6.818;2023-03-21T07:31:56;10.00;99.90
6407;DHT22;3236;51.022;6.818;2023-03-21T07:36:53;9.60;99.90
6407;DHT22;3236;51.022;6.818;2023-03-21T07:39:24;10.00;99.90
6407;DHT22;3236;51.022;6.818;2023-03-21T07:49:16;9.70;99.90
6407;DHT22;3236;51.022;6.818;2023-03-21T07:51:43;9.80;99.90
6407;DHT22;3236;51.022;6.818;2023-03-21T07:54:10;9.60;99.90
6407;DHT22;3236;51.022;6.818;2023-03-21T07:56:38;9.70;99.90
6407;DHT22;3236;51.022;6.818;2023-03-21T07:59:06;9.80;99.90
6407;DHT22;3236;51.022;6.818;2023-03-21T08:01:33;9.90;99.90
6407;DHT22;3236;51.022;6.818;2023-03-21T08:04:00;9.70;99.90
6407;DHT22;3236;51.022;6.818;2023-03-21T08:06:33;9.80;99.90
6407;DHT22;3236;51.022;6.818;2023-03-21T08:09:00;9.50;99.90
6407;DHT22;3236;51.022;6.818;2023-03-21T08:11:28;9.80;99.90
6407;DHT22;3236;51.022;6.818;2023-03-21T08:18:52;9.60;99.90
6407;DHT22;3236;51.022;6.818;2023-03-21T08:21:19;9.60;99.90
6407;DHT22;3236;51.022;6.818;2023-03-21T08:23:46;9.30;99.90
6407;DHT22;3236;51.022;6.818;2023-03-21T08:26:14;9.40;99.90
6407;DHT22;3236;51.022;6.818;2023-03-21T08:28:44;9.50;99.90
6407;DHT22;3236;51.022;6.818;2023-03-21T08:31:13;9.70;99.90
6407;DHT22;3236;51.022;6.818;2023-03-21T08:33:46;9.80;99.90
6407;DHT22;3236;51.022;6.818;2023-03-21T08:36:23;9.90;99.90
6407;DHT22;3236;51.022;6.818;2023-03-21T08:38:53;10.10;99.90
6407;DHT22;3236;51.022;6.818;2023-03-21T08:41:29;9.70;99.90
6407;DHT22;3236;51.022;6.818;2023-03-21T08:43:59;9.90;99.90
6407;DHT22;3236;51.022;6.818;2023-03-21T08:46:43;9.90;99.90
6407;DHT22;3236;51.022;6.818;2023-03-21T08:49:12;9.70;99.90
6407;DHT22;3236;51.022;6.818;2023-03-21T08:51:39;9.70;99.90
6407;DHT22;3236;51.022;6.818;2023-03-21T09:04:15;10.20;99.90
6407;DHT22;3236;51.022;6.818;2023-03-21T09:06:43;10.00;99.90
6407;DHT22;3236;51.022;6.818;2023-03-21T09:09:17;10.30;99.90
6407;DHT22;3236;51.022;6.818;2023-03-21T09:14:16;10.10;99.90
6407;DHT22;3236;51.022;6.818;2023-03-21T09:16:43;9.90;99.90
6407;DHT22;3236;51.022;6.818;2023-03-21T09:19:14;10.20;99.90
6407;DHT22;3236;51.022;6.818;2023-03-21T09:21:42;10.20;99.90
6407;DHT22;3236;51.022;6.818;2023-03-21T09:24:10;10.20;99.90
6407;DHT22;3236;51.022;6.818;2023-03-21T09:34:05;10.40;99.90
6407;DHT22;3236;51.022;6.818;2023-03-21T09:36:34;10.50;99.90
6407;DHT22;3236;51.022;6.818;2023-03-21T09:39:02;10.60;99.90
6407;DHT22;3236;51.022;6.818;2023-03-21T09:41:50;10.50;99.90
6407;DHT22;3236;51.022;6.818;2023-03-21T09:44:29;10.40;99.90
6407;DHT22;3236;51.022;6.818;2023-03-21T09:47:03;10.90;99.90
6407;DHT22;3236;51.022;6.818;2023-03-21T09:49:34;10.60;99.90
6407;DHT22;3236;51.022;6.818;2023-03-21T09:52:10;10.10;99.90
6407;DHT22;3236;51.022;6.818;2023-03-21T09:57:15;10.60;99.90
6407;DHT22;3236;51.022;6.818;2023-03-21T09:59:51;10.30;99.90
6407;DHT22;3236;51.022;6.818;2023-03-21T10:02:34;10.40;99.90
6407;DHT22;3236;51.022;6.818;2023-03-21T10:05:12;10.50;99.90
6407;DHT22;3236;51.022;6.818;2023-03-21T10:07:54;10.30;99.90
6407;DHT22;3236;51.022;6.818;2023-03-21T10:10:26;10.50;99.90
6407;DHT22;3236;51.022;6.818;2023-03-21T10:13:14;10.80;99.90
6407;DHT22;3236;51.022;6.818;2023-03-21T10:15:43;10.40;99.90
6407;DHT22;3236;51.022;6.818;2023-03-21T10:18:19;10.90;99.90
6407;DHT22;3236;51.022;6.818;2023-03-21T10:20:50;10.80;99.90
6407;DHT22;3236;51.022;6.818;2023-03-21T10:23:24;10.80;99.90
6407;DHT22;3236;51.022;6.818;2023-03-21T10:25:54;10.50;99.90
6407;DHT22;3236;51.022;6.818;2023-03-21T10:28:25;10.50;99.90
6407;DHT22;3236;51.022;6.818;2023-03-21T10:30:56;10.70;99.90
6407;DHT22;3236;51.022;6.818;2023-03-21T10:33:26;10.50;99.90
6407;DHT22;3236;51.022;6.818;2023-03-21T10:35:57;10.70;99.90
6407;DHT22;3236;51.022;6.818;2023-03-21T10:38:31;10.80;99.90
6407;DHT22;3236;51.022;6.818;2023-03-21T10:43:35;10.70;99.90
6407;DHT22;3236;51.022;6.818;2023-03-21T10:46:12;10.80;99.90
6407;DHT22;3236;51.022;6.818;2023-03-21T10:48:41;10.50;99.90
6407;DHT22;3236;51.022;6.818;2023-03-21T10:51:16;8.70;99.90
6407;DHT22;3236;51.022;6.818;2023-03-21T10:56:17;11.10;99.90
6407;DHT22;3236;51.022;6.818;2023-03-21T10:58:52;11.10;99.90
6407;DHT22;3236;51.022;6.818;2023-03-21T11:01:27;10.70;99.90
6407;DHT22;3236;51.022;6.818;2023-03-21T11:03:58;10.90;99.90
6407;DHT22;3236;51.022;6.818;2023-03-21T11:06:28;10.70;99.90
6407;DHT22;3236;51.022;6.818;2023-03-21T11:09:00;11.00;99.90
6407;DHT22;3236;51.022;6.818;2023-03-21T11:11:34;10.70;99.90
6407;DHT22;3236;51.022;6.818;2023-03-21T11:14:04;11.00;99.90
6407;DHT22;3236;51.022;6.818;2023-03-21T11:19:14;11.20;99.90
6407;DHT22;3236;51.022;6.818;2023-03-21T11:21:43;11.20;99.90
6407;DHT22;3236;51.022;6.818;2023-03-21T11:24:15;11.00;99.90
6407;DHT22;3236;51.022;6.818;2023-03-21T11:29:30;11.00;99.90
6407;DHT22;3236;51.022;6.818;2023-03-21T11:32:19;11.20;99.90
6407;DHT22;3236;51.022;6.818;2023-03-21T11:34:50;11.20;99.90
6407;DHT22;3236;51.022;6.818;2023-03-21T11:37:22;10.80;99.90
6407;DHT22;3236;51.022;6.818;2023-03-21T11:40:05;11.00;99.90
6407;DHT22;3236;51.022;6.818;2023-03-21T11:42:41;11.50;99.90
6407;DHT22;3236;51.022;6.818;2023-03-21T11:45:13;10.70;99.90
6407;DHT22;3236;51.022;6.818;2023-03-21T11:47:42;11.40;99.90
6407;DHT22;3236;51.022;6.818;2023-03-21T11:50:27;11.10;99.90
6407;DHT22;3236;51.022;6.818;2023-03-21T11:55:49;11.40;99.90
6407;DHT22;3236;51.022;6.818;2023-03-21T11:58:32;10.80;99.90
6407;DHT22;3236;51.022;6.818;2023-03-21T12:01:06;10.60;99.90
6407;DHT22;3236;51.022;6.818;2023-03-21T12:03:50;10.60;99.90
6407;DHT22;3236;51.022;6.818;2023-03-21T12:06:25;10.70;99.90
6407;DHT22;3236;51.022;6.818;2023-03-21T12:09:10;10.80;99.90
6407;DHT22;3236;51.022;6.818;2023-03-21T12:11:54;10.80;99.90
6407;DHT22;3236;51.022;6.818;2023-03-21T12:14:36;10.60;99.90
6407;DHT22;3236;51.022;6.818;2023-03-21T12:17:11;10.60;99.90
6407;DHT22;3236;51.022;6.818;2023-03-21T12:22:39;10.30;99.90
6407;DHT22;3236;51.022;6.818;2023-03-21T12:25:15;10.60;99.90
6407;DHT22;3236;51.022;6.818;2023-03-21T12:27:50;10.70;99.90
6407;DHT22;3236;51.022;6.818;2023-03-21T12:30:32;10.60;99.90
6407;DHT22;3236;51.022;6.818;2023-03-21T12:36:13;11.10;99.90
6407;DHT22;3236;51.022;6.818;2023-03-21T12:38:57;10.50;99.90
6407;DHT22;3236;51.022;6.818;2023-03-21T12:41:36;11.00;99.90
6407;DHT22;3236;51.022;6.818;2023-03-21T12:44:13;10.70;99.90
6407;DHT22;3236;51.022;6.818;2023-03-21T12:46:44;10.70;99.90
6407;DHT22;3236;51.022;6.818;2023-03-21T12:49:17;11.20;99.90
6407;DHT22;3236;51.022;6.818;2023-03-21T12:51:50;11.60;99.90
6407;DHT22;3236;51.022;6.818;2023-03-21T12:54:25;11.20;99.90
6407;DHT22;3236;51.022;6.818;2023-03-21T12:56:58;11.20;99.90
6407;DHT22;3236;51.022;6.818;2023-03-21T12:59:35;11.60;99.90
6407;DHT22;3236;51.022;6.818;2023-03-21T13:02:15;11.70;99.90
6407;DHT22;3236;51.022;6.818;2023-03-21T13:04:48;12.10;99.90
6407;DHT22;3236;51.022;6.818;2023-03-21T13:07:20;11.80;99.90
6407;DHT22;3236;51.022;6.818;2023-03-21T13:09:49;11.60;99.90
6407;DHT22;3236;51.022;6.818;2023-03-21T13:12:25;11.50;99.90
6407;DHT22;3236;51.022;6.818;2023-03-21T13:15:05;11.60;99.90
6407;DHT22;3236;51.022;6.818;2023-03-21T13:17:43;11.60;99.90
6407;DHT22;3236;51.022;6.818;2023-03-21T13:20:18;11.70;99.90
6407;DHT22;3236;51.022;6.818;2023-03-21T13:22:49;12.10;99.90
6407;DHT22;3236;51.022;6.818;2023-03-21T13:25:18;11.50;99.90
6407;DHT22;3236;51.022;6.818;2023-03-21T13:27:51;11.80;99.90
6407;DHT22;3236;51.022;6.818;2023-03-21T13:30:21;11.80;99.90
6407;DHT22;3236;51.022;6.818;2023-03-21T13:32:54;12.10;99.90
6407;DHT22;3236;51.022;6.818;2023-03-21T13:35:33;12.70;99.90
6407;DHT22;3236;51.022;6.818;2023-03-21T13:38:05;12.40;99.90
6407;DHT22;3236;51.022;6.818;2023-03-21T13:40:39;12.50;99.90
6407;DHT22;3236;51.022;6.818;2023-03-21T13:43:33;13.00;99.90
6407;DHT22;3236;51.022;6.818;2023-03-21T13:46:10;13.10;99.90
6407;DHT22;3236;51.022;6.818;2023-03-21T13:48:43;13.20;99.90
6407;DHT22;3236;51.022;6.818;2023-03-21T13:51:10;13.60;99.90
6407;DHT22;3236;51.022;6.818;2023-03-21T13:53:41;13.60;99.90
6407;DHT22;3236;51.022;6.818;2023-03-21T13:56:20;13.20;99.90
6407;DHT22;3236;51.022;6.818;2023-03-21T13:58:59;13.20;99.90
6407;DHT22;3236;51.022;6.818;2023-03-21T14:01:34;12.40;99.90
6407;DHT22;3236;51.022;6.818;2023-03-21T14:04:10;12.40;99.90
6407;DHT22;3236;51.022;6.818;2023-03-21T14:06:43;12.70;99.90
6407;DHT22;3236;51.022;6.818;2023-03-21T14:09:21;11.30;99.90
6407;DHT22;3236;51.022;6.818;2023-03-21T14:11:58;13.20;99.90
6407;DHT22;3236;51.022;6.818;2023-03-21T14:14:36;13.30;99.90
6407;DHT22;3236;51.022;6.818;2023-03-21T14:17:12;12.90;99.90
6407;DHT22;3236;51.022;6.818;2023-03-21T14:24:37;12.50;99.90
6407;DHT22;3236;51.022;6.818;2023-03-21T14:29:34;13.20;99.90
6407;DHT22;3236;51.022;6.818;2023-03-21T14:32:23;13.20;99.90
6407;DHT22;3236;51.022;6.818;2023-03-21T14:34:53;13.10;99.90
6407;DHT22;3236;51.022;6.818;2023-03-21T14:37:29;13.20;99.90
6407;DHT22;3236;51.022;6.818;2023-03-21T14:40:04;13.10;99.90
6407;DHT22;3236;51.022;6.818;2023-03-21T14:42:37;12.70;99.90
6407;DHT22;3236;51.022;6.818;2023-03-21T14:45:18;13.00;99.90
6407;DHT22;3236;51.022;6.818;2023-03-21T14:47:58;13.10;99.90
6407;DHT22;3236;51.022;6.818;2023-03-21T14:50:33;13.10;99.90
6407;DHT22;3236;51.022;6.818;2023-03-21T14:58:02;13.30;99.90
6407;DHT22;3236;51.022;6.818;2023-03-21T15:00:31;13.60;99.90
6407;DHT22;3236;51.022;6.818;2023-03-21T15:03:01;13.70;99.90
6407;DHT22;3236;51.022;6.818;2023-03-21T15:05:30;14.50;99.90
6407;DHT22;3236;51.022;6.818;2023-03-21T15:08:06;14.60;99.90
6407;DHT22;3236;51.022;6.818;2023-03-21T15:10:33;15.10;99.90
6407;DHT22;3236;51.022;6.818;2023-03-21T15:13:09;15.20;99.90
6407;DHT22;3236;51.022;6.818;2023-03-21T15:15:39;15.50;99.90
6407;DHT22;3236;51.022;6.818;2023-03-21T15:18:09;16.20;99.90
6407;DHT22;3236;51.022;6.818;2023-03-21T15:20:38;17.30;99.90
6407;DHT22;3236;51.022;6.818;2023-03-21T15:23:09;17.40;99.90
6407;DHT22;3236;51.022;6.818;2023-03-21T15:25:39;16.50;99.90
6407;DHT22;3236;51.022;6.818;2023-03-21T15:28:06;17.30;99.90
6407;DHT22;3236;51.022;6.818;2023-03-21T15:30:33;15.20;99.90
6407;DHT22;3236;51.022;6.818;2023-03-21T15:33:05;15.30;99.90
6407;DHT22;3236;51.022;6.818;2023-03-21T15:35:37;16.20;99.90
6407;DHT22;3236;51.022;6.818;2023-03-21T15:38:04;16.90;99.90
6407;DHT22;3236;51.022;6.818;2023-03-21T15:40:33;17.00;99.90
6407;DHT22;3236;51.022;6.818;2023-03-21T15:43:05;17.00;99.90
6407;DHT22;3236;51.022;6.818;2023-03-21T15:45:33;16.10;99.90
6407;DHT22;3236;51.022;6.818;2023-03-21T15:48:01;15.20;99.90
6407;DHT22;3236;51.022;6.818;2023-03-21T15:50:33;14.80;99.90
6407;DHT22;3236;51.022;6.818;2023-03-21T15:53:05;14.60;99.90
6407;DHT22;3236;51.022;6.818;2023-03-21T15:55:40;14.60;99.90
6407;DHT22;3236;51.022;6.818;2023-03-21T15:58:15;14.60;99.90
6407;DHT22;3236;51.022;6.818;2023-03-21T16:00:48;14.40;99.90
6407;DHT22;3236;51.022;6.818;2023-03-21T16:03:20;13.90;99.90
6407;DHT22;3236;51.022;6.818;2023-03-21T16:06:15;14.10;99.90
6407;DHT22;3236;51.022;6.818;2023-03-21T16:08:45;14.00;99.90
6407;DHT22;3236;51.022;6.818;2023-03-21T16:11:25;14.50;99.90
6407;DHT22;3236;51.022;6.818;2023-03-21T16:13:58;13.70;99.90
6407;DHT22;3236;51.022;6.818;2023-03-21T16:16:27;14.20;99.90
6407;DHT22;3236;51.022;6.818;2023-03-21T16:18:56;14.70;99.90
6407;DHT22;3236;51.022;6.818;2023-03-21T16:21:25;13.90;99.90
6407;DHT22;3236;51.022;6.818;2023-03-21T16:23:55;14.20;99.90
6407;DHT22;3236;51.022;6.818;2023-03-21T16:26:27;14.10;99.90
6407;DHT22;3236;51.022;6.818;2023-03-21T16:28:55;13.90;99.90
6407;DHT22;3236;51.022;6.818;2023-03-21T16:31:24;13.60;99.90
6407;DHT22;3236;51.022;6.818;2023-03-21T16:33:52;13.50;99.90
6407;DHT22;3236;51.022;6.818;2023-03-21T16:36:21;13.60;99.90
6407;DHT22;3236;51.022;6.818;2023-03-21T16:38:49;14.20;99.90
6407;DHT22;3236;51.022;6.818;2023-03-21T16:41:19;13.50;99.90
6407;DHT22;3236;51.022;6.818;2023-03-21T16:46:14;13.90;99.90
6407;DHT22;3236;51.022;6.818;2023-03-21T16:48:45;13.80;99.90
6407;DHT22;3236;51.022;6.818;2023-03-21T16:51:18;13.70;99.90
6407;DHT22;3236;51.022;6.818;2023-03-21T16:53:47;13.60;99.90
6407;DHT22;3236;51.022;6.818;2023-03-21T16:56:18;13.90;99.90
6407;DHT22;3236;51.022;6.818;2023-03-21T16:58:46;13.70;99.90
6407;DHT22;3236;51.022;6.818;2023-03-21T17:01:14;13.50;99.90
6407;DHT22;3236;51.022;6.818;2023-03-21T17:03:47;13.70;99.90
6407;DHT22;3236;51.022;6.818;2023-03-21T17:06:16;13.30;99.90
6407;DHT22;3236;51.022;6.818;2023-03-21T17:08:44;13.10;99.90
6407;DHT22;3236;51.022;6.818;2023-03-21T17:11:12;13.20;99.90
6407;DHT22;3236;51.022;6.818;2023-03-21T17:13:42;13.40;99.90
6407;DHT22;3236;51.022;6.818;2023-03-21T17:16:11;13.60;99.90
6407;DHT22;3236;51.022;6.818;2023-03-21T17:21:12;12.90;99.90
6407;DHT22;3236;51.022;6.818;2023-03-21T17:23:40;13.00;99.90
6407;DHT22;3236;51.022;6.818;2023-03-21T17:26:27;13.60;99.90
6407;DHT22;3236;51.022;6.818;2023-03-21T17:28:56;13.00;99.90
6407;DHT22;3236;51.022;6.818;2023-03-21T17:31:26;13.00;99.90
6407;DHT22;3236;51.022;6.818;2023-03-21T17:36:25;12.70;99.90
6407;DHT22;3236;51.022;6.818;2023-03-21T17:38:55;13.00;99.90
6407;DHT22;3236;51.022;6.818;2023-03-21T17:41:22;12.40;99.90
6407;DHT22;3236;51.022;6.818;2023-03-21T17:43:50;13.00;99.90
6407;DHT22;3236;51.022;6.818;2023-03-21T17:46:20;12.60;99.90
6407;DHT22;3236;51.022;6.818;2023-03-21T17:48:48;12.40;99.90
6407;DHT22;3236;51.022;6.818;2023-03-21T17:51:15;13.00;99.90
6407;DHT22;3236;51.022;6.818;2023-03-21T17:53:43;12.40;99.90
6407;DHT22;3236;51.022;6.818;2023-03-21T17:56:13;12.30;99.90
6407;DHT22;3236;51.022;6.818;2023-03-21T18:01:11;12.80;99.90
6407;DHT22;3236;51.022;6.818;2023-03-21T18:03:40;12.80;99.90
6407;DHT22;3236;51.022;6.818;2023-03-21T18:06:14;12.90;99.90
6407;DHT22;3236;51.022;6.818;2023-03-21T18:16:11;13.00;99.90
6407;DHT22;3236;51.022;6.818;2023-03-21T18:18:40;13.50;99.90
6407;DHT22;3236;51.022;6.818;2023-03-21T18:21:07;13.00;99.90
6407;DHT22;3236;51.022;6.818;2023-03-21T18:26:02;13.60;99.90
6407;DHT22;3236;51.022;6.818;2023-03-21T18:28:30;12.80;99.90
6407;DHT22;3236;51.022;6.818;2023-03-21T18:30:57;12.90;99.90
6407;DHT22;3236;51.022;6.818;2023-03-21T18:35:58;12.90;99.90
6407;DHT22;3236;51.022;6.818;2023-03-21T18:38:25;12.70;99.90
6407;DHT22;3236;51.022;6.818;2023-03-21T18:43:20;13.00;99.90
6407;DHT22;3236;51.022;6.818;2023-03-21T18:45:47;13.00;99.90
6407;DHT22;3236;51.022;6.818;2023-03-21T18:48:14;13.20;99.90
6407;DHT22;3236;51.022;6.818;2023-03-21T18:50:42;12.70;99.90
6407;DHT22;3236;51.022;6.818;2023-03-21T18:53:11;13.10;99.90
6407;DHT22;3236;51.022;6.818;2023-03-21T18:58:12;12.80;99.90
6407;DHT22;3236;51.022;6.818;2023-03-21T19:00:45;12.80;99.90
6407;DHT22;3236;51.022;6.818;2023-03-21T19:05:42;12.80;99.90
6407;DHT22;3236;51.022;6.818;2023-03-21T19:08:11;13.10;99.90
6407;DHT22;3236;51.022;6.818;2023-03-21T19:10:38;12.60;99.90
6407;DHT22;3236;51.022;6.818;2023-03-21T19:13:14;13.20;99.90
6407;DHT22;3236;51.022;6.818;2023-03-21T19:15:46;12.50;99.90
6407;DHT22;3236;51.022;6.818;2023-03-21T19:38:01;12.40;99.90
6407;DHT22;3236;51.022;6.818;2023-03-21T19:43:00;13.00;99.90
6407;DHT22;3236;51.022;6.818;2023-03-21T19:48:03;12.20;99.90
6407;DHT22;3236;51.022;6.818;2023-03-21T19:50:34;12.50;99.90
6407;DHT22;3236;51.022;6.818;2023-03-21T19:58:07;12.60;99.90
6407;DHT22;3236;51.022;6.818;2023-03-21T20:00:35;12.50;99.90
6407;DHT22;3236;51.022;6.818;2023-03-21T20:03:02;12.10;99.90
6407;DHT22;3236;51.022;6.818;2023-03-21T20:05:33;12.70;99.90
6407;DHT22;3236;51.022;6.818;2023-03-21T20:10:32;12.30;99.90
6407;DHT22;3236;51.022;6.818;2023-03-21T20:12:59;12.10;99.90
6407;DHT22;3236;51.022;6.818;2023-03-21T20:15:28;12.80;99.90
6407;DHT22;3236;51.022;6.818;2023-03-21T20:17:56;12.40;99.90
6407;DHT22;3236;51.022;6.818;2023-03-21T20:20:28;12.50;99.90
6407;DHT22;3236;51.022;6.818;2023-03-21T20:22:56;12.50;99.90
6407;DHT22;3236;51.022;6.818;2023-03-21T20:25:23;12.10;99.90